sensor_id;sensor_type;location;lat;lon;timestamp;P1;durP1;ratioP1;P2;durP2;ratioP2
45326;SDS011;31062;49.678;24.560;2023-12-22T00:00:11;0.20;;;0.10;;
45326;SDS011;31062;49.678;24.560;2023-12-22T00:02:57;0.30;;;0.20;;
45326;SDS011;31062;49.678;24.560;2023-12-22T00:05:43;0.10;;;0.10;;
45326;SDS011;31062;49.678;24.560;2023-12-22T00:08:30;0.28;;;0.20;;
45326;SDS011;31062;49.678;24.560;2023-12-22T00:11:16;0.10;;;0.10;;
45326;SDS011;31062;49.678;24.560;2023-12-22T00:14:02;0.00;;;0.00;;
45326;SDS011;31062;49.678;24.560;2023-12-22T00:16:49;0.05;;;0.05;;
45326;SDS011;31062;49.678;24.560;2023-12-22T00:19:35;0.20;;;0.20;;
45326;SDS011;31062;49.678;24.560;2023-12-22T00:22:22;0.20;;;0.10;;
45326;SDS011;31062;49.678;24.560;2023-12-22T00:25:08;0.03;;;0.00;;
45326;SDS011;31062;49.678;24.560;2023-12-22T00:27:54;0.63;;;0.28;;
45326;SDS011;31062;49.678;24.560;2023-12-22T00:30:40;0.25;;;0.20;;
45326;SDS011;31062;49.678;24.560;2023-12-22T00:33:26;0.15;;;0.15;;
45326;SDS011;31062;49.678;24.560;2023-12-22T00:36:12;0.20;;;0.10;;
45326;SDS011;31062;49.678;24.560;2023-12-22T00:38:58;0.55;;;0.08;;
45326;SDS011;31062;49.678;24.560;2023-12-22T00:41:44;0.10;;;0.10;;
45326;SDS011;31062;49.678;24.560;2023-12-22T00:44:30;0.32;;;0.20;;
45326;SDS011;31062;49.678;24.560;2023-12-22T00:47:16;0.40;;;0.30;;
45326;SDS011;31062;49.678;24.560;2023-12-22T00:50:03;0.28;;;0.28;;
45326;SDS011;31062;49.678;24.560;2023-12-22T00:52:50;0.28;;;0.20;;
45326;SDS011;31062;49.678;24.560;2023-12-22T00:55:35;0.28;;;0.10;;
45326;SDS011;31062;49.678;24.560;2023-12-22T00:58:22;0.73;;;0.22;;
45326;SDS011;31062;49.678;24.560;2023-12-22T01:01:07;0.50;;;0.38;;
45326;SDS011;31062;49.678;24.560;2023-12-22T01:03:53;0.95;;;0.22;;
45326;SDS011;31062;49.678;24.560;2023-12-22T01:06:39;0.77;;;0.40;;
45326;SDS011;31062;49.678;24.560;2023-12-22T01:09:25;0.88;;;0.60;;
45326;SDS011;31062;49.678;24.560;2023-12-22T01:12:11;0.57;;;0.30;;
45326;SDS011;31062;49.678;24.560;2023-12-22T01:14:57;0.50;;;0.50;;
45326;SDS011;31062;49.678;24.560;2023-12-22T01:17:43;1.20;;;0.55;;
45326;SDS011;31062;49.678;24.560;2023-12-22T01:20:31;0.88;;;0.75;;
45326;SDS011;31062;49.678;24.560;2023-12-22T01:23:17;0.50;;;0.47;;
45326;SDS011;31062;49.678;24.560;2023-12-22T01:26:04;1.42;;;1.08;;
45326;SDS011;31062;49.678;24.560;2023-12-22T01:28:49;0.82;;;0.55;;
45326;SDS011;31062;49.678;24.560;2023-12-22T01:31:35;0.25;;;0.25;;
45326;SDS011;31062;49.678;24.560;2023-12-22T01:34:20;0.82;;;0.80;;
45326;SDS011;31062;49.678;24.560;2023-12-22T01:37:06;0.88;;;0.75;;
45326;SDS011;31062;49.678;24.560;2023-12-22T01:39:52;1.58;;;0.40;;
45326;SDS011;31062;49.678;24.560;2023-12-22T01:42:39;0.65;;;0.50;;
45326;SDS011;31062;49.678;24.560;2023-12-22T01:45:25;2.25;;;1.17;;
45326;SDS011;31062;49.678;24.560;2023-12-22T01:48:10;1.38;;;1.10;;
45326;SDS011;31062;49.678;24.560;2023-12-22T01:50:57;1.00;;;0.65;;
45326;SDS011;31062;49.678;24.560;2023-12-22T01:53:46;0.60;;;0.60;;
45326;SDS011;31062;49.678;24.560;2023-12-22T01:56:31;2.22;;;0.90;;
45326;SDS011;31062;49.678;24.560;2023-12-22T01:59:17;2.42;;;1.17;;
45326;SDS011;31062;49.678;24.560;2023-12-22T02:02:03;3.80;;;1.58;;
45326;SDS011;31062;49.678;24.560;2023-12-22T02:04:50;0.65;;;0.57;;
45326;SDS011;31062;49.678;24.560;2023-12-22T02:07:36;1.35;;;0.40;;
45326;SDS011;31062;49.678;24.560;2023-12-22T02:10:25;0.45;;;0.45;;
45326;SDS011;31062;49.678;24.560;2023-12-22T02:13:11;1.23;;;0.77;;
45326;SDS011;31062;49.678;24.560;2023-12-22T02:16:10;0.98;;;0.77;;
45326;SDS011;31062;49.678;24.560;2023-12-22T02:19:24;1.67;;;0.88;;
45326;SDS011;31062;49.678;24.560;2023-12-22T02:22:21;1.35;;;1.10;;
45326;SDS011;31062;49.678;24.560;2023-12-22T02:25:07;1.23;;;0.73;;
45326;SDS011;31062;49.678;24.560;2023-12-22T02:27:53;1.67;;;1.00;;
45326;SDS011;31062;49.678;24.560;2023-12-22T02:33:42;1.55;;;1.45;;
45326;SDS011;31062;49.678;24.560;2023-12-22T02:36:29;1.45;;;0.98;;
45326;SDS011;31062;49.678;24.560;2023-12-22T02:39:18;3.97;;;1.33;;
45326;SDS011;31062;49.678;24.560;2023-12-22T02:42:05;0.77;;;0.77;;
45326;SDS011;31062;49.678;24.560;2023-12-22T02:44:51;0.65;;;0.50;;
45326;SDS011;31062;49.678;24.560;2023-12-22T02:47:37;2.63;;;0.90;;
45326;SDS011;31062;49.678;24.560;2023-12-22T02:50:23;0.50;;;0.50;;
45326;SDS011;31062;49.678;24.560;2023-12-22T02:53:09;2.22;;;0.98;;
45326;SDS011;31062;49.678;24.560;2023-12-22T02:55:55;1.00;;;0.60;;
45326;SDS011;31062;49.678;24.560;2023-12-22T02:58:40;2.90;;;0.70;;
45326;SDS011;31062;49.678;24.560;2023-12-22T03:01:27;1.67;;;0.70;;
45326;SDS011;31062;49.678;24.560;2023-12-22T03:04:13;1.08;;;0.80;;
45326;SDS011;31062;49.678;24.560;2023-12-22T03:06:59;1.08;;;0.98;;
45326;SDS011;31062;49.678;24.560;2023-12-22T03:09:45;1.80;;;1.20;;
45326;SDS011;31062;49.678;24.560;2023-12-22T03:12:31;2.05;;;1.23;;
45326;SDS011;31062;49.678;24.560;2023-12-22T03:15:17;1.95;;;1.17;;
45326;SDS011;31062;49.678;24.560;2023-12-22T03:18:03;3.17;;;1.42;;
45326;SDS011;31062;49.678;24.560;2023-12-22T03:20:49;1.08;;;1.00;;
45326;SDS011;31062;49.678;24.560;2023-12-22T03:23:35;1.45;;;0.77;;
45326;SDS011;31062;49.678;24.560;2023-12-22T03:26:21;1.27;;;1.13;;
45326;SDS011;31062;49.678;24.560;2023-12-22T03:29:07;1.40;;;1.00;;
45326;SDS011;31062;49.678;24.560;2023-12-22T03:31:53;1.00;;;0.93;;
45326;SDS011;31062;49.678;24.560;2023-12-22T03:34:39;1.10;;;0.80;;
45326;SDS011;31062;49.678;24.560;2023-12-22T03:37:25;1.05;;;0.93;;
45326;SDS011;31062;49.678;24.560;2023-12-22T03:40:11;0.80;;;0.80;;
45326;SDS011;31062;49.678;24.560;2023-12-22T03:42:58;4.82;;;0.90;;
45326;SDS011;31062;49.678;24.560;2023-12-22T03:45:44;1.58;;;1.15;;
45326;SDS011;31062;49.678;24.560;2023-12-22T03:48:29;1.38;;;1.27;;
45326;SDS011;31062;49.678;24.560;2023-12-22T03:51:16;0.95;;;0.93;;
45326;SDS011;31062;49.678;24.560;2023-12-22T03:54:01;0.60;;;0.60;;
45326;SDS011;31062;49.678;24.560;2023-12-22T03:56:47;1.33;;;0.60;;
45326;SDS011;31062;49.678;24.560;2023-12-22T03:59:33;0.55;;;0.55;;
45326;SDS011;31062;49.678;24.560;2023-12-22T04:02:19;0.40;;;0.40;;
45326;SDS011;31062;49.678;24.560;2023-12-22T04:05:05;1.58;;;0.50;;
45326;SDS011;31062;49.678;24.560;2023-12-22T04:07:51;0.73;;;0.65;;
45326;SDS011;31062;49.678;24.560;2023-12-22T04:10:37;0.47;;;0.47;;
45326;SDS011;31062;49.678;24.560;2023-12-22T04:13:24;0.90;;;0.52;;
45326;SDS011;31062;49.678;24.560;2023-12-22T04:16:09;1.00;;;0.65;;
45326;SDS011;31062;49.678;24.560;2023-12-22T04:18:55;0.60;;;0.50;;
45326;SDS011;31062;49.678;24.560;2023-12-22T04:21:41;0.85;;;0.60;;
45326;SDS011;31062;49.678;24.560;2023-12-22T04:24:26;1.15;;;0.50;;
45326;SDS011;31062;49.678;24.560;2023-12-22T04:27:12;0.47;;;0.40;;
45326;SDS011;31062;49.678;24.560;2023-12-22T04:29:58;0.40;;;0.40;;
45326;SDS011;31062;49.678;24.560;2023-12-22T04:32:44;0.47;;;0.47;;
45326;SDS011;31062;49.678;24.560;2023-12-22T04:35:30;0.60;;;0.47;;
45326;SDS011;31062;49.678;24.560;2023-12-22T04:38:16;0.60;;;0.60;;
45326;SDS011;31062;49.678;24.560;2023-12-22T04:41:02;0.40;;;0.40;;
45326;SDS011;31062;49.678;24.560;2023-12-22T04:43:48;0.98;;;0.43;;
45326;SDS011;31062;49.678;24.560;2023-12-22T04:46:34;0.40;;;0.40;;
45326;SDS011;31062;49.678;24.560;2023-12-22T04:49:19;0.40;;;0.40;;
45326;SDS011;31062;49.678;24.560;2023-12-22T04:52:05;1.55;;;0.60;;
45326;SDS011;31062;49.678;24.560;2023-12-22T04:54:52;0.98;;;0.45;;
45326;SDS011;31062;49.678;24.560;2023-12-22T04:57:38;0.70;;;0.70;;
45326;SDS011;31062;49.678;24.560;2023-12-22T05:00:24;0.43;;;0.43;;
45326;SDS011;31062;49.678;24.560;2023-12-22T05:03:10;0.60;;;0.50;;
45326;SDS011;31062;49.678;24.560;2023-12-22T05:05:56;1.63;;;0.70;;
45326;SDS011;31062;49.678;24.560;2023-12-22T05:08:42;0.82;;;0.65;;
45326;SDS011;31062;49.678;24.560;2023-12-22T05:11:27;1.85;;;0.70;;
45326;SDS011;31062;49.678;24.560;2023-12-22T05:14:13;0.90;;;0.60;;
45326;SDS011;31062;49.678;24.560;2023-12-22T05:16:59;1.67;;;0.90;;
45326;SDS011;31062;49.678;24.560;2023-12-22T05:19:45;1.35;;;0.70;;
45326;SDS011;31062;49.678;24.560;2023-12-22T05:22:30;1.13;;;0.50;;
45326;SDS011;31062;49.678;24.560;2023-12-22T05:25:21;1.63;;;0.77;;
45326;SDS011;31062;49.678;24.560;2023-12-22T05:28:06;4.18;;;1.45;;
45326;SDS011;31062;49.678;24.560;2023-12-22T05:30:52;2.67;;;1.30;;
45326;SDS011;31062;49.678;24.560;2023-12-22T05:33:38;2.60;;;0.95;;
45326;SDS011;31062;49.678;24.560;2023-12-22T05:36:24;1.48;;;0.75;;
45326;SDS011;31062;49.678;24.560;2023-12-22T05:39:10;3.75;;;1.50;;
45326;SDS011;31062;49.678;24.560;2023-12-22T05:41:57;4.57;;;1.20;;
45326;SDS011;31062;49.678;24.560;2023-12-22T05:44:43;2.90;;;1.00;;
45326;SDS011;31062;49.678;24.560;2023-12-22T05:47:29;1.30;;;1.08;;
45326;SDS011;31062;49.678;24.560;2023-12-22T05:50:15;4.20;;;0.88;;
45326;SDS011;31062;49.678;24.560;2023-12-22T05:53:02;2.28;;;0.90;;
45326;SDS011;31062;49.678;24.560;2023-12-22T05:55:48;1.45;;;1.35;;
45326;SDS011;31062;49.678;24.560;2023-12-22T05:58:34;2.58;;;0.90;;
45326;SDS011;31062;49.678;24.560;2023-12-22T06:01:20;2.45;;;1.17;;
45326;SDS011;31062;49.678;24.560;2023-12-22T06:04:06;3.25;;;1.38;;
45326;SDS011;31062;49.678;24.560;2023-12-22T06:06:52;2.65;;;2.45;;
45326;SDS011;31062;49.678;24.560;2023-12-22T06:09:39;2.85;;;1.85;;
45326;SDS011;31062;49.678;24.560;2023-12-22T06:12:25;3.00;;;1.48;;
45326;SDS011;31062;49.678;24.560;2023-12-22T06:15:10;6.57;;;2.17;;
45326;SDS011;31062;49.678;24.560;2023-12-22T06:17:56;8.15;;;2.30;;
45326;SDS011;31062;49.678;24.560;2023-12-22T06:20:43;3.10;;;1.10;;
45326;SDS011;31062;49.678;24.560;2023-12-22T06:23:29;2.15;;;1.02;;
45326;SDS011;31062;49.678;24.560;2023-12-22T06:26:18;7.55;;;1.10;;
45326;SDS011;31062;49.678;24.560;2023-12-22T06:29:04;3.58;;;1.35;;
45326;SDS011;31062;49.678;24.560;2023-12-22T06:31:50;6.30;;;2.63;;
45326;SDS011;31062;49.678;24.560;2023-12-22T06:34:36;3.42;;;1.60;;
45326;SDS011;31062;49.678;24.560;2023-12-22T06:37:21;3.83;;;1.60;;
45326;SDS011;31062;49.678;24.560;2023-12-22T06:40:07;6.60;;;2.03;;
45326;SDS011;31062;49.678;24.560;2023-12-22T06:42:53;7.68;;;2.00;;
45326;SDS011;31062;49.678;24.560;2023-12-22T06:45:39;11.48;;;2.65;;
45326;SDS011;31062;49.678;24.560;2023-12-22T06:48:25;14.20;;;4.20;;
45326;SDS011;31062;49.678;24.560;2023-12-22T06:54:12;7.18;;;2.63;;
45326;SDS011;31062;49.678;24.560;2023-12-22T06:57:01;5.32;;;2.60;;
45326;SDS011;31062;49.678;24.560;2023-12-22T06:59:47;2.33;;;1.33;;
45326;SDS011;31062;49.678;24.560;2023-12-22T07:02:35;8.20;;;2.45;;
45326;SDS011;31062;49.678;24.560;2023-12-22T07:08:08;5.20;;;2.33;;
45326;SDS011;31062;49.678;24.560;2023-12-22T07:10:54;5.93;;;2.03;;
45326;SDS011;31062;49.678;24.560;2023-12-22T07:13:40;6.32;;;3.15;;
45326;SDS011;31062;49.678;24.560;2023-12-22T07:16:28;17.83;;;6.20;;
45326;SDS011;31062;49.678;24.560;2023-12-22T07:19:14;10.50;;;4.05;;
45326;SDS011;31062;49.678;24.560;2023-12-22T07:21:59;5.85;;;1.50;;
45326;SDS011;31062;49.678;24.560;2023-12-22T07:24:45;5.70;;;1.45;;
45326;SDS011;31062;49.678;24.560;2023-12-22T07:27:31;8.25;;;1.83;;
45326;SDS011;31062;49.678;24.560;2023-12-22T07:30:17;2.08;;;1.70;;
45326;SDS011;31062;49.678;24.560;2023-12-22T07:33:03;6.00;;;1.50;;
45326;SDS011;31062;49.678;24.560;2023-12-22T07:35:48;4.72;;;1.55;;
45326;SDS011;31062;49.678;24.560;2023-12-22T07:38:35;5.32;;;1.67;;
45326;SDS011;31062;49.678;24.560;2023-12-22T07:41:21;4.65;;;1.55;;
45326;SDS011;31062;49.678;24.560;2023-12-22T07:44:07;7.05;;;2.65;;
45326;SDS011;31062;49.678;24.560;2023-12-22T07:46:59;5.30;;;2.13;;
45326;SDS011;31062;49.678;24.560;2023-12-22T07:49:47;4.82;;;2.38;;
45326;SDS011;31062;49.678;24.560;2023-12-22T07:52:35;12.68;;;3.30;;
45326;SDS011;31062;49.678;24.560;2023-12-22T07:55:26;11.30;;;3.42;;
45326;SDS011;31062;49.678;24.560;2023-12-22T07:58:12;5.72;;;3.08;;
45326;SDS011;31062;49.678;24.560;2023-12-22T08:00:58;6.80;;;3.72;;
45326;SDS011;31062;49.678;24.560;2023-12-22T08:03:44;13.98;;;4.38;;
45326;SDS011;31062;49.678;24.560;2023-12-22T08:06:30;4.82;;;2.30;;
45326;SDS011;31062;49.678;24.560;2023-12-22T08:09:16;7.45;;;3.15;;
45326;SDS011;31062;49.678;24.560;2023-12-22T08:12:02;13.07;;;3.72;;
45326;SDS011;31062;49.678;24.560;2023-12-22T08:14:49;8.55;;;2.33;;
45326;SDS011;31062;49.678;24.560;2023-12-22T08:17:36;5.53;;;2.95;;
45326;SDS011;31062;49.678;24.560;2023-12-22T08:20:22;6.20;;;1.92;;
45326;SDS011;31062;49.678;24.560;2023-12-22T08:23:16;4.25;;;1.95;;
45326;SDS011;31062;49.678;24.560;2023-12-22T08:26:02;3.47;;;1.95;;
45326;SDS011;31062;49.678;24.560;2023-12-22T08:28:49;2.55;;;1.48;;
45326;SDS011;31062;49.678;24.560;2023-12-22T08:31:35;6.32;;;2.47;;
45326;SDS011;31062;49.678;24.560;2023-12-22T08:34:21;8.07;;;3.50;;
45326;SDS011;31062;49.678;24.560;2023-12-22T08:37:07;9.02;;;4.20;;
45326;SDS011;31062;49.678;24.560;2023-12-22T08:39:53;12.30;;;3.90;;
45326;SDS011;31062;49.678;24.560;2023-12-22T08:42:38;20.63;;;7.13;;
45326;SDS011;31062;49.678;24.560;2023-12-22T08:45:26;10.13;;;3.95;;
45326;SDS011;31062;49.678;24.560;2023-12-22T08:48:14;8.73;;;3.70;;
45326;SDS011;31062;49.678;24.560;2023-12-22T08:50:59;6.25;;;3.55;;
45326;SDS011;31062;49.678;24.560;2023-12-22T08:53:46;9.68;;;4.63;;
45326;SDS011;31062;49.678;24.560;2023-12-22T08:56:32;10.75;;;4.05;;
45326;SDS011;31062;49.678;24.560;2023-12-22T08:59:20;10.70;;;3.20;;
45326;SDS011;31062;49.678;24.560;2023-12-22T09:02:06;4.65;;;1.80;;
45326;SDS011;31062;49.678;24.560;2023-12-22T09:04:52;10.20;;;2.72;;
45326;SDS011;31062;49.678;24.560;2023-12-22T09:07:38;12.52;;;3.35;;
45326;SDS011;31062;49.678;24.560;2023-12-22T09:10:24;8.70;;;3.90;;
45326;SDS011;31062;49.678;24.560;2023-12-22T09:13:10;10.38;;;4.55;;
45326;SDS011;31062;49.678;24.560;2023-12-22T09:15:56;5.95;;;3.10;;
45326;SDS011;31062;49.678;24.560;2023-12-22T09:18:43;4.20;;;2.40;;
45326;SDS011;31062;49.678;24.560;2023-12-22T09:21:30;7.32;;;2.88;;
45326;SDS011;31062;49.678;24.560;2023-12-22T09:24:16;9.07;;;3.60;;
45326;SDS011;31062;49.678;24.560;2023-12-22T09:27:02;10.18;;;3.60;;
45326;SDS011;31062;49.678;24.560;2023-12-22T09:29:48;7.07;;;2.63;;
45326;SDS011;31062;49.678;24.560;2023-12-22T09:32:34;7.50;;;2.70;;
45326;SDS011;31062;49.678;24.560;2023-12-22T09:35:20;3.72;;;2.00;;
45326;SDS011;31062;49.678;24.560;2023-12-22T09:38:07;4.00;;;1.85;;
45326;SDS011;31062;49.678;24.560;2023-12-22T09:40:55;5.45;;;1.50;;
45326;SDS011;31062;49.678;24.560;2023-12-22T09:43:43;5.05;;;1.60;;
45326;SDS011;31062;49.678;24.560;2023-12-22T09:46:34;4.93;;;1.67;;
45326;SDS011;31062;49.678;24.560;2023-12-22T09:49:21;5.55;;;1.13;;
45326;SDS011;31062;49.678;24.560;2023-12-22T09:52:07;7.82;;;1.90;;
45326;SDS011;31062;49.678;24.560;2023-12-22T09:54:54;5.30;;;2.03;;
45326;SDS011;31062;49.678;24.560;2023-12-22T09:57:41;7.85;;;2.25;;
45326;SDS011;31062;49.678;24.560;2023-12-22T10:00:27;1.40;;;1.27;;
45326;SDS011;31062;49.678;24.560;2023-12-22T10:03:15;3.88;;;1.70;;
45326;SDS011;31062;49.678;24.560;2023-12-22T10:06:01;4.07;;;1.95;;
45326;SDS011;31062;49.678;24.560;2023-12-22T10:08:48;2.15;;;1.73;;
45326;SDS011;31062;49.678;24.560;2023-12-22T10:11:37;5.82;;;1.95;;
45326;SDS011;31062;49.678;24.560;2023-12-22T10:14:25;3.78;;;1.40;;
45326;SDS011;31062;49.678;24.560;2023-12-22T10:17:12;5.35;;;1.42;;
45326;SDS011;31062;49.678;24.560;2023-12-22T10:19:58;5.22;;;1.08;;
45326;SDS011;31062;49.678;24.560;2023-12-22T10:22:44;7.97;;;1.92;;
45326;SDS011;31062;49.678;24.560;2023-12-22T10:25:32;4.00;;;1.55;;
45326;SDS011;31062;49.678;24.560;2023-12-22T10:28:18;9.57;;;2.75;;
45326;SDS011;31062;49.678;24.560;2023-12-22T10:31:09;3.47;;;2.10;;
45326;SDS011;31062;49.678;24.560;2023-12-22T10:33:55;6.20;;;1.65;;
45326;SDS011;31062;49.678;24.560;2023-12-22T10:36:40;8.38;;;2.42;;
45326;SDS011;31062;49.678;24.560;2023-12-22T10:39:29;6.82;;;2.28;;
45326;SDS011;31062;49.678;24.560;2023-12-22T10:42:16;8.00;;;2.15;;
45326;SDS011;31062;49.678;24.560;2023-12-22T10:45:03;5.18;;;1.50;;
45326;SDS011;31062;49.678;24.560;2023-12-22T10:47:49;5.40;;;1.92;;
45326;SDS011;31062;49.678;24.560;2023-12-22T10:50:39;4.93;;;1.48;;
45326;SDS011;31062;49.678;24.560;2023-12-22T10:53:26;5.80;;;1.70;;
45326;SDS011;31062;49.678;24.560;2023-12-22T10:56:11;8.88;;;1.95;;
45326;SDS011;31062;49.678;24.560;2023-12-22T10:58:58;9.52;;;4.47;;
45326;SDS011;31062;49.678;24.560;2023-12-22T11:01:44;9.30;;;2.60;;
45326;SDS011;31062;49.678;24.560;2023-12-22T11:04:31;5.88;;;2.00;;
45326;SDS011;31062;49.678;24.560;2023-12-22T11:07:23;4.95;;;1.67;;
45326;SDS011;31062;49.678;24.560;2023-12-22T11:10:10;12.35;;;3.13;;
45326;SDS011;31062;49.678;24.560;2023-12-22T11:12:57;19.65;;;6.07;;
45326;SDS011;31062;49.678;24.560;2023-12-22T11:15:43;30.98;;;8.75;;
45326;SDS011;31062;49.678;24.560;2023-12-22T11:18:29;12.93;;;3.63;;
45326;SDS011;31062;49.678;24.560;2023-12-22T11:21:15;6.35;;;2.15;;
45326;SDS011;31062;49.678;24.560;2023-12-22T11:24:02;6.38;;;2.53;;
45326;SDS011;31062;49.678;24.560;2023-12-22T11:26:49;9.00;;;2.47;;
45326;SDS011;31062;49.678;24.560;2023-12-22T11:29:36;6.53;;;1.90;;
45326;SDS011;31062;49.678;24.560;2023-12-22T11:32:24;7.88;;;1.90;;
45326;SDS011;31062;49.678;24.560;2023-12-22T11:35:11;11.15;;;2.83;;
45326;SDS011;31062;49.678;24.560;2023-12-22T11:38:00;11.18;;;3.33;;
45326;SDS011;31062;49.678;24.560;2023-12-22T11:40:48;4.60;;;2.40;;
45326;SDS011;31062;49.678;24.560;2023-12-22T11:43:39;6.55;;;2.45;;
45326;SDS011;31062;49.678;24.560;2023-12-22T11:46:26;13.90;;;4.72;;
45326;SDS011;31062;49.678;24.560;2023-12-22T11:49:12;7.03;;;3.20;;
45326;SDS011;31062;49.678;24.560;2023-12-22T11:52:14;7.22;;;2.13;;
45326;SDS011;31062;49.678;24.560;2023-12-22T11:55:01;7.85;;;3.00;;
45326;SDS011;31062;49.678;24.560;2023-12-22T11:57:48;9.27;;;2.30;;
45326;SDS011;31062;49.678;24.560;2023-12-22T12:03:23;9.20;;;2.03;;
45326;SDS011;31062;49.678;24.560;2023-12-22T12:09:00;10.30;;;3.00;;
45326;SDS011;31062;49.678;24.560;2023-12-22T12:14:40;4.70;;;2.15;;
45326;SDS011;31062;49.678;24.560;2023-12-22T12:17:28;7.60;;;1.90;;
45326;SDS011;31062;49.678;24.560;2023-12-22T12:20:15;5.97;;;1.85;;
45326;SDS011;31062;49.678;24.560;2023-12-22T12:23:01;8.20;;;3.13;;
45326;SDS011;31062;49.678;24.560;2023-12-22T12:25:47;11.60;;;4.45;;
45326;SDS011;31062;49.678;24.560;2023-12-22T12:28:34;10.63;;;4.10;;
45326;SDS011;31062;49.678;24.560;2023-12-22T12:31:20;7.07;;;2.78;;
45326;SDS011;31062;49.678;24.560;2023-12-22T12:34:23;12.27;;;5.15;;
45326;SDS011;31062;49.678;24.560;2023-12-22T12:37:08;6.97;;;3.38;;
45326;SDS011;31062;49.678;24.560;2023-12-22T12:39:55;9.45;;;2.60;;
45326;SDS011;31062;49.678;24.560;2023-12-22T12:42:45;7.40;;;2.47;;
45326;SDS011;31062;49.678;24.560;2023-12-22T12:45:51;7.72;;;2.47;;
45326;SDS011;31062;49.678;24.560;2023-12-22T12:48:38;7.28;;;1.98;;
45326;SDS011;31062;49.678;24.560;2023-12-22T12:51:24;8.38;;;3.20;;
45326;SDS011;31062;49.678;24.560;2023-12-22T12:54:10;44.33;;;10.20;;
45326;SDS011;31062;49.678;24.560;2023-12-22T12:56:57;8.90;;;3.00;;
45326;SDS011;31062;49.678;24.560;2023-12-22T12:59:46;8.98;;;2.03;;
45326;SDS011;31062;49.678;24.560;2023-12-22T13:02:35;4.90;;;2.33;;
45326;SDS011;31062;49.678;24.560;2023-12-22T13:05:22;7.97;;;1.83;;
45326;SDS011;31062;49.678;24.560;2023-12-22T13:08:09;4.45;;;2.40;;
45326;SDS011;31062;49.678;24.560;2023-12-22T13:10:59;8.98;;;3.05;;
45326;SDS011;31062;49.678;24.560;2023-12-22T13:13:47;3.97;;;2.03;;
45326;SDS011;31062;49.678;24.560;2023-12-22T13:16:33;7.30;;;2.75;;
45326;SDS011;31062;49.678;24.560;2023-12-22T13:19:20;12.07;;;4.10;;
45326;SDS011;31062;49.678;24.560;2023-12-22T13:22:06;6.50;;;3.65;;
45326;SDS011;31062;49.678;24.560;2023-12-22T13:24:56;14.77;;;5.18;;
45326;SDS011;31062;49.678;24.560;2023-12-22T13:27:48;12.60;;;4.60;;
45326;SDS011;31062;49.678;24.560;2023-12-22T13:30:38;11.20;;;4.85;;
45326;SDS011;31062;49.678;24.560;2023-12-22T13:33:27;6.82;;;2.60;;
45326;SDS011;31062;49.678;24.560;2023-12-22T13:36:19;8.77;;;3.88;;
45326;SDS011;31062;49.678;24.560;2023-12-22T13:39:05;6.50;;;2.42;;
45326;SDS011;31062;49.678;24.560;2023-12-22T13:41:52;7.13;;;2.67;;
45326;SDS011;31062;49.678;24.560;2023-12-22T13:44:42;7.13;;;2.38;;
45326;SDS011;31062;49.678;24.560;2023-12-22T13:47:35;7.82;;;3.20;;
45326;SDS011;31062;49.678;24.560;2023-12-22T13:50:25;22.75;;;8.07;;
45326;SDS011;31062;49.678;24.560;2023-12-22T13:53:12;21.48;;;9.35;;
45326;SDS011;31062;49.678;24.560;2023-12-22T13:56:00;7.30;;;3.92;;
45326;SDS011;31062;49.678;24.560;2023-12-22T13:58:46;5.47;;;2.50;;
45326;SDS011;31062;49.678;24.560;2023-12-22T14:01:32;6.97;;;3.47;;
45326;SDS011;31062;49.678;24.560;2023-12-22T14:04:19;7.80;;;3.35;;
45326;SDS011;31062;49.678;24.560;2023-12-22T14:07:05;11.48;;;4.07;;
45326;SDS011;31062;49.678;24.560;2023-12-22T14:09:51;5.78;;;2.63;;
45326;SDS011;31062;49.678;24.560;2023-12-22T14:12:40;8.77;;;4.13;;
45326;SDS011;31062;49.678;24.560;2023-12-22T14:15:26;11.23;;;4.60;;
45326;SDS011;31062;49.678;24.560;2023-12-22T14:18:26;11.40;;;4.60;;
45326;SDS011;31062;49.678;24.560;2023-12-22T14:21:12;6.30;;;3.15;;
45326;SDS011;31062;49.678;24.560;2023-12-22T14:23:58;8.00;;;3.47;;
45326;SDS011;31062;49.678;24.560;2023-12-22T14:26:53;5.18;;;1.83;;
45326;SDS011;31062;49.678;24.560;2023-12-22T14:29:40;4.43;;;2.00;;
45326;SDS011;31062;49.678;24.560;2023-12-22T14:32:26;5.63;;;2.08;;
45326;SDS011;31062;49.678;24.560;2023-12-22T14:35:12;6.65;;;1.85;;
45326;SDS011;31062;49.678;24.560;2023-12-22T14:37:58;5.05;;;1.67;;
45326;SDS011;31062;49.678;24.560;2023-12-22T14:40:44;5.35;;;1.92;;
45326;SDS011;31062;49.678;24.560;2023-12-22T14:43:30;8.13;;;3.40;;
45326;SDS011;31062;49.678;24.560;2023-12-22T14:46:15;9.23;;;3.42;;
45326;SDS011;31062;49.678;24.560;2023-12-22T14:49:02;13.98;;;7.63;;
45326;SDS011;31062;49.678;24.560;2023-12-22T14:51:47;6.43;;;4.10;;
45326;SDS011;31062;49.678;24.560;2023-12-22T14:54:39;6.93;;;2.97;;
45326;SDS011;31062;49.678;24.560;2023-12-22T14:57:25;6.72;;;2.60;;
45326;SDS011;31062;49.678;24.560;2023-12-22T15:00:11;5.53;;;2.38;;
45326;SDS011;31062;49.678;24.560;2023-12-22T15:02:58;9.82;;;4.47;;
45326;SDS011;31062;49.678;24.560;2023-12-22T15:05:44;11.25;;;5.95;;
45326;SDS011;31062;49.678;24.560;2023-12-22T15:08:30;4.30;;;2.55;;
45326;SDS011;31062;49.678;24.560;2023-12-22T15:11:16;10.25;;;5.88;;
45326;SDS011;31062;49.678;24.560;2023-12-22T15:14:02;10.07;;;6.63;;
45326;SDS011;31062;49.678;24.560;2023-12-22T15:16:48;6.60;;;2.45;;
45326;SDS011;31062;49.678;24.560;2023-12-22T15:19:39;8.07;;;2.03;;
45326;SDS011;31062;49.678;24.560;2023-12-22T15:22:28;35.00;;;19.48;;
45326;SDS011;31062;49.678;24.560;2023-12-22T15:25:14;17.83;;;14.05;;
45326;SDS011;31062;49.678;24.560;2023-12-22T15:28:00;3.88;;;3.25;;
45326;SDS011;31062;49.678;24.560;2023-12-22T15:30:47;8.23;;;3.15;;
45326;SDS011;31062;49.678;24.560;2023-12-22T15:33:34;4.63;;;2.20;;
45326;SDS011;31062;49.678;24.560;2023-12-22T15:36:20;7.53;;;2.05;;
45326;SDS011;31062;49.678;24.560;2023-12-22T15:39:07;3.28;;;1.15;;
45326;SDS011;31062;49.678;24.560;2023-12-22T15:41:53;4.60;;;1.83;;
45326;SDS011;31062;49.678;24.560;2023-12-22T15:44:39;3.35;;;1.13;;
45326;SDS011;31062;49.678;24.560;2023-12-22T15:47:25;2.08;;;1.00;;
45326;SDS011;31062;49.678;24.560;2023-12-22T15:50:11;1.52;;;1.27;;
45326;SDS011;31062;49.678;24.560;2023-12-22T15:52:57;3.67;;;1.42;;
45326;SDS011;31062;49.678;24.560;2023-12-22T15:55:43;2.30;;;1.08;;
45326;SDS011;31062;49.678;24.560;2023-12-22T15:58:29;3.03;;;0.98;;
45326;SDS011;31062;49.678;24.560;2023-12-22T16:01:16;4.88;;;1.35;;
45326;SDS011;31062;49.678;24.560;2023-12-22T16:04:02;1.90;;;1.00;;
45326;SDS011;31062;49.678;24.560;2023-12-22T16:06:47;4.40;;;2.15;;
45326;SDS011;31062;49.678;24.560;2023-12-22T16:09:34;4.78;;;1.23;;
45326;SDS011;31062;49.678;24.560;2023-12-22T16:12:20;7.63;;;2.72;;
45326;SDS011;31062;49.678;24.560;2023-12-22T16:15:07;7.28;;;3.10;;
45326;SDS011;31062;49.678;24.560;2023-12-22T16:17:54;7.68;;;4.07;;
45326;SDS011;31062;49.678;24.560;2023-12-22T16:20:40;6.28;;;3.13;;
45326;SDS011;31062;49.678;24.560;2023-12-22T16:23:26;6.53;;;2.40;;
45326;SDS011;31062;49.678;24.560;2023-12-22T16:26:32;5.43;;;2.17;;
45326;SDS011;31062;49.678;24.560;2023-12-22T16:29:18;4.90;;;1.70;;
45326;SDS011;31062;49.678;24.560;2023-12-22T16:32:04;3.00;;;1.58;;
45326;SDS011;31062;49.678;24.560;2023-12-22T16:34:51;5.47;;;2.70;;
45326;SDS011;31062;49.678;24.560;2023-12-22T16:37:37;9.32;;;3.90;;
45326;SDS011;31062;49.678;24.560;2023-12-22T16:40:25;3.25;;;2.10;;
45326;SDS011;31062;49.678;24.560;2023-12-22T16:43:11;1.42;;;1.33;;
45326;SDS011;31062;49.678;24.560;2023-12-22T16:45:58;2.78;;;1.67;;